sensor_id;sensor_type;location;lat;lon;timestamp;P1;durP1;ratioP1;P2;durP2;ratioP2
12770;SDS011;6449;47.666;9.160;2023-05-07T00:01:08;5.72;;;3.53;;
12770;SDS011;6449;47.666;9.160;2023-05-07T00:06:02;8.10;;;3.58;;
12770;SDS011;6449;47.666;9.160;2023-05-07T00:10:56;6.47;;;4.50;;
12770;SDS011;6449;47.666;9.160;2023-05-07T00:15:49;5.43;;;4.57;;
12770;SDS011;6449;47.666;9.160;2023-05-07T00:20:44;5.40;;;4.20;;
12770;SDS011;6449;47.666;9.160;2023-05-07T00:25:37;7.07;;;4.10;;
12770;SDS011;6449;47.666;9.160;2023-05-07T00:30:30;5.32;;;3.90;;
12770;SDS011;6449;47.666;9.160;2023-05-07T00:35:24;7.22;;;3.60;;
12770;SDS011;6449;47.666;9.160;2023-05-07T00:40:19;4.43;;;4.00;;
12770;SDS011;6449;47.666;9.160;2023-05-07T00:45:13;7.30;;;3.90;;
12770;SDS011;6449;47.666;9.160;2023-05-07T00:50:07;4.50;;;4.00;;
12770;SDS011;6449;47.666;9.160;2023-05-07T00:55:05;4.90;;;4.40;;
12770;SDS011;6449;47.666;9.160;2023-05-07T01:00:01;4.85;;;4.35;;
12770;SDS011;6449;47.666;9.160;2023-05-07T01:04:55;4.82;;;3.90;;
12770;SDS011;6449;47.666;9.160;2023-05-07T01:09:49;4.70;;;3.45;;
12770;SDS011;6449;47.666;9.160;2023-05-07T01:14:43;4.00;;;3.60;;
12770;SDS011;6449;47.666;9.160;2023-05-07T01:19:38;5.38;;;3.78;;
12770;SDS011;6449;47.666;9.160;2023-05-07T01:24:33;4.03;;;3.28;;
12770;SDS011;6449;47.666;9.160;2023-05-07T01:29:29;5.18;;;3.75;;
12770;SDS011;6449;47.666;9.160;2023-05-07T01:34:22;7.15;;;3.80;;
12770;SDS011;6449;47.666;9.160;2023-05-07T01:39:18;4.28;;;3.88;;
12770;SDS011;6449;47.666;9.160;2023-05-07T01:44:13;6.13;;;4.07;;
12770;SDS011;6449;47.666;9.160;2023-05-07T01:49:09;5.93;;;4.38;;
12770;SDS011;6449;47.666;9.160;2023-05-07T01:54:02;5.63;;;4.10;;
12770;SDS011;6449;47.666;9.160;2023-05-07T01:58:56;4.07;;;3.78;;
12770;SDS011;6449;47.666;9.160;2023-05-07T02:03:51;4.85;;;3.88;;
12770;SDS011;6449;47.666;9.160;2023-05-07T02:08:45;6.53;;;4.65;;
12770;SDS011;6449;47.666;9.160;2023-05-07T02:13:39;4.70;;;3.95;;
12770;SDS011;6449;47.666;9.160;2023-05-07T02:18:34;4.32;;;3.92;;
12770;SDS011;6449;47.666;9.160;2023-05-07T02:23:29;4.63;;;4.22;;
12770;SDS011;6449;47.666;9.160;2023-05-07T02:28:22;4.78;;;4.30;;
12770;SDS011;6449;47.666;9.160;2023-05-07T02:33:16;5.47;;;4.15;;
12770;SDS011;6449;47.666;9.160;2023-05-07T02:38:09;6.03;;;4.50;;
12770;SDS011;6449;47.666;9.160;2023-05-07T02:43:04;5.72;;;3.92;;
12770;SDS011;6449;47.666;9.160;2023-05-07T02:47:57;8.35;;;4.00;;
12770;SDS011;6449;47.666;9.160;2023-05-07T02:52:51;4.72;;;4.32;;
12770;SDS011;6449;47.666;9.160;2023-05-07T02:57:44;4.07;;;3.78;;
12770;SDS011;6449;47.666;9.160;2023-05-07T03:02:39;4.60;;;3.92;;
12770;SDS011;6449;47.666;9.160;2023-05-07T03:07:32;4.60;;;3.85;;
12770;SDS011;6449;47.666;9.160;2023-05-07T03:12:26;4.47;;;3.90;;
12770;SDS011;6449;47.666;9.160;2023-05-07T03:17:20;5.50;;;4.93;;
12770;SDS011;6449;47.666;9.160;2023-05-07T03:22:16;4.80;;;4.25;;
12770;SDS011;6449;47.666;9.160;2023-05-07T03:27:09;7.53;;;4.00;;
12770;SDS011;6449;47.666;9.160;2023-05-07T03:32:03;4.10;;;3.75;;
12770;SDS011;6449;47.666;9.160;2023-05-07T03:36:57;7.25;;;3.72;;
12770;SDS011;6449;47.666;9.160;2023-05-07T03:41:52;4.15;;;3.75;;
12770;SDS011;6449;47.666;9.160;2023-05-07T03:46:46;5.53;;;4.32;;
12770;SDS011;6449;47.666;9.160;2023-05-07T03:51:39;4.63;;;4.03;;
12770;SDS011;6449;47.666;9.160;2023-05-07T03:56:32;7.80;;;4.57;;
12770;SDS011;6449;47.666;9.160;2023-05-07T04:01:27;5.45;;;4.68;;
12770;SDS011;6449;47.666;9.160;2023-05-07T04:06:20;5.10;;;4.60;;
12770;SDS011;6449;47.666;9.160;2023-05-07T04:11:14;5.10;;;4.22;;
12770;SDS011;6449;47.666;9.160;2023-05-07T04:16:07;5.25;;;4.75;;
12770;SDS011;6449;47.666;9.160;2023-05-07T04:21:02;5.05;;;4.35;;
12770;SDS011;6449;47.666;9.160;2023-05-07T04:25:56;5.78;;;4.35;;
12770;SDS011;6449;47.666;9.160;2023-05-07T04:30:49;4.38;;;3.97;;
12770;SDS011;6449;47.666;9.160;2023-05-07T04:35:42;5.25;;;4.43;;
12770;SDS011;6449;47.666;9.160;2023-05-07T04:40:37;4.88;;;4.40;;
12770;SDS011;6449;47.666;9.160;2023-05-07T04:45:31;5.53;;;4.28;;
12770;SDS011;6449;47.666;9.160;2023-05-07T04:50:25;4.70;;;4.30;;
12770;SDS011;6449;47.666;9.160;2023-05-07T04:55:18;4.70;;;4.20;;
12770;SDS011;6449;47.666;9.160;2023-05-07T05:00:14;5.85;;;4.85;;
12770;SDS011;6449;47.666;9.160;2023-05-07T05:05:14;6.45;;;4.78;;
12770;SDS011;6449;47.666;9.160;2023-05-07T05:10:07;5.63;;;4.88;;
12770;SDS011;6449;47.666;9.160;2023-05-07T05:15:02;6.22;;;5.63;;
12770;SDS011;6449;47.666;9.160;2023-05-07T05:19:57;7.53;;;5.80;;
12770;SDS011;6449;47.666;9.160;2023-05-07T05:24:51;5.97;;;5.38;;
12770;SDS011;6449;47.666;9.160;2023-05-07T05:29:44;5.43;;;4.80;;
12770;SDS011;6449;47.666;9.160;2023-05-07T05:34:37;5.82;;;5.30;;
12770;SDS011;6449;47.666;9.160;2023-05-07T05:39:32;6.40;;;5.80;;
12770;SDS011;6449;47.666;9.160;2023-05-07T05:44:25;7.28;;;5.70;;
12770;SDS011;6449;47.666;9.160;2023-05-07T05:49:19;7.00;;;6.40;;
12770;SDS011;6449;47.666;9.160;2023-05-07T05:54:12;6.47;;;5.88;;
12770;SDS011;6449;47.666;9.160;2023-05-07T05:59:07;7.35;;;6.30;;
12770;SDS011;6449;47.666;9.160;2023-05-07T06:04:01;7.82;;;6.07;;
12770;SDS011;6449;47.666;9.160;2023-05-07T06:08:55;7.30;;;6.10;;
12770;SDS011;6449;47.666;9.160;2023-05-07T06:13:48;8.40;;;7.60;;
12770;SDS011;6449;47.666;9.160;2023-05-07T06:18:44;8.37;;;7.40;;
12770;SDS011;6449;47.666;9.160;2023-05-07T06:23:38;8.63;;;7.17;;
12770;SDS011;6449;47.666;9.160;2023-05-07T06:28:32;7.95;;;6.90;;
12770;SDS011;6449;47.666;9.160;2023-05-07T06:33:27;7.85;;;6.75;;
12770;SDS011;6449;47.666;9.160;2023-05-07T06:38:21;7.45;;;6.75;;
12770;SDS011;6449;47.666;9.160;2023-05-07T06:43:15;8.00;;;7.20;;
12770;SDS011;6449;47.666;9.160;2023-05-07T06:48:08;7.18;;;6.47;;
12770;SDS011;6449;47.666;9.160;2023-05-07T06:53:02;6.32;;;5.72;;
12770;SDS011;6449;47.666;9.160;2023-05-07T06:57:57;7.13;;;6.45;;
12770;SDS011;6449;47.666;9.160;2023-05-07T07:02:52;8.38;;;7.03;;
12770;SDS011;6449;47.666;9.160;2023-05-07T07:07:46;7.65;;;6.82;;
12770;SDS011;6449;47.666;9.160;2023-05-07T07:12:50;7.88;;;7.10;;
12770;SDS011;6449;47.666;9.160;2023-05-07T07:17:45;7.22;;;6.53;;
12770;SDS011;6449;47.666;9.160;2023-05-07T07:22:39;7.15;;;6.43;;
12770;SDS011;6449;47.666;9.160;2023-05-07T07:27:32;7.68;;;6.97;;
12770;SDS011;6449;47.666;9.160;2023-05-07T07:32:25;6.95;;;6.25;;
12770;SDS011;6449;47.666;9.160;2023-05-07T07:37:20;8.85;;;6.43;;
12770;SDS011;6449;47.666;9.160;2023-05-07T07:42:14;8.00;;;6.53;;
12770;SDS011;6449;47.666;9.160;2023-05-07T07:47:07;9.27;;;7.13;;
12770;SDS011;6449;47.666;9.160;2023-05-07T07:52:00;8.10;;;7.28;;
12770;SDS011;6449;47.666;9.160;2023-05-07T07:56:55;7.60;;;6.82;;
12770;SDS011;6449;47.666;9.160;2023-05-07T08:01:49;7.75;;;7.05;;
12770;SDS011;6449;47.666;9.160;2023-05-07T08:06:45;7.78;;;6.90;;
12770;SDS011;6449;47.666;9.160;2023-05-07T08:11:39;6.65;;;6.03;;
12770;SDS011;6449;47.666;9.160;2023-05-07T08:16:34;6.72;;;6.10;;
12770;SDS011;6449;47.666;9.160;2023-05-07T08:21:27;6.80;;;6.10;;
12770;SDS011;6449;47.666;9.160;2023-05-07T08:26:24;6.53;;;5.15;;
12770;SDS011;6449;47.666;9.160;2023-05-07T08:31:18;6.30;;;5.47;;
12770;SDS011;6449;47.666;9.160;2023-05-07T08:36:13;6.85;;;5.38;;
12770;SDS011;6449;47.666;9.160;2023-05-07T08:41:06;5.80;;;5.30;;
12770;SDS011;6449;47.666;9.160;2023-05-07T08:46:03;5.97;;;5.40;;
12770;SDS011;6449;47.666;9.160;2023-05-07T08:51:00;6.13;;;5.03;;
12770;SDS011;6449;47.666;9.160;2023-05-07T08:55:55;6.18;;;5.15;;
12770;SDS011;6449;47.666;9.160;2023-05-07T09:00:49;5.88;;;5.38;;
12770;SDS011;6449;47.666;9.160;2023-05-07T09:11:34;5.60;;;4.38;;
12770;SDS011;6449;47.666;9.160;2023-05-07T09:16:28;5.30;;;3.78;;
12770;SDS011;6449;47.666;9.160;2023-05-07T09:21:23;4.30;;;3.50;;
12770;SDS011;6449;47.666;9.160;2023-05-07T09:26:17;4.07;;;3.03;;
12770;SDS011;6449;47.666;9.160;2023-05-07T09:31:12;2.97;;;2.70;;
12770;SDS011;6449;47.666;9.160;2023-05-07T09:36:08;2.47;;;2.22;;
12770;SDS011;6449;47.666;9.160;2023-05-07T09:41:03;3.22;;;2.55;;
12770;SDS011;6449;47.666;9.160;2023-05-07T09:45:58;2.83;;;2.53;;
12770;SDS011;6449;47.666;9.160;2023-05-07T09:50:58;2.05;;;1.90;;
12770;SDS011;6449;47.666;9.160;2023-05-07T09:55:57;3.10;;;2.28;;
12770;SDS011;6449;47.666;9.160;2023-05-07T10:00:55;5.50;;;5.03;;
12770;SDS011;6449;47.666;9.160;2023-05-07T10:05:50;10.50;;;5.85;;
12770;SDS011;6449;47.666;9.160;2023-05-07T10:10:45;5.57;;;5.03;;
12770;SDS011;6449;47.666;9.160;2023-05-07T10:15:39;5.68;;;5.13;;
12770;SDS011;6449;47.666;9.160;2023-05-07T10:20:34;6.35;;;4.80;;
12770;SDS011;6449;47.666;9.160;2023-05-07T10:25:32;6.60;;;4.30;;
12770;SDS011;6449;47.666;9.160;2023-05-07T10:30:29;5.22;;;4.07;;
12770;SDS011;6449;47.666;9.160;2023-05-07T10:35:37;4.95;;;4.45;;
12770;SDS011;6449;47.666;9.160;2023-05-07T10:40:34;5.82;;;5.28;;
12770;SDS011;6449;47.666;9.160;2023-05-07T10:45:30;4.50;;;4.05;;
12770;SDS011;6449;47.666;9.160;2023-05-07T10:50:24;6.38;;;5.07;;
12770;SDS011;6449;47.666;9.160;2023-05-07T10:55:18;7.28;;;4.85;;
12770;SDS011;6449;47.666;9.160;2023-05-07T11:05:35;6.07;;;5.47;;
12770;SDS011;6449;47.666;9.160;2023-05-07T11:10:49;6.57;;;5.82;;
12770;SDS011;6449;47.666;9.160;2023-05-07T11:15:46;6.40;;;5.80;;
12770;SDS011;6449;47.666;9.160;2023-05-07T11:20:44;5.88;;;5.38;;
12770;SDS011;6449;47.666;9.160;2023-05-07T11:25:49;5.90;;;5.30;;
12770;SDS011;6449;47.666;9.160;2023-05-07T11:30:42;5.72;;;5.22;;
12770;SDS011;6449;47.666;9.160;2023-05-07T11:35:38;6.85;;;6.25;;
12770;SDS011;6449;47.666;9.160;2023-05-07T11:40:34;6.20;;;5.60;;
12770;SDS011;6449;47.666;9.160;2023-05-07T11:45:41;5.78;;;5.28;;
12770;SDS011;6449;47.666;9.160;2023-05-07T11:50:34;6.20;;;5.38;;
12770;SDS011;6449;47.666;9.160;2023-05-07T11:55:29;6.65;;;5.95;;
12770;SDS011;6449;47.666;9.160;2023-05-07T12:00:23;6.45;;;5.82;;
12770;SDS011;6449;47.666;9.160;2023-05-07T12:05:16;6.18;;;5.68;;
12770;SDS011;6449;47.666;9.160;2023-05-07T12:10:10;6.55;;;5.95;;
12770;SDS011;6449;47.666;9.160;2023-05-07T12:15:07;6.55;;;5.72;;
12770;SDS011;6449;47.666;9.160;2023-05-07T12:20:02;5.32;;;4.78;;
12770;SDS011;6449;47.666;9.160;2023-05-07T12:24:57;5.43;;;4.93;;
12770;SDS011;6449;47.666;9.160;2023-05-07T12:29:51;5.40;;;4.90;;
12770;SDS011;6449;47.666;9.160;2023-05-07T12:34:46;5.28;;;4.22;;
12770;SDS011;6449;47.666;9.160;2023-05-07T12:39:47;6.15;;;4.20;;
12770;SDS011;6449;47.666;9.160;2023-05-07T12:44:41;9.27;;;4.18;;
12770;SDS011;6449;47.666;9.160;2023-05-07T12:49:42;4.47;;;4.18;;
12770;SDS011;6449;47.666;9.160;2023-05-07T12:54:38;4.75;;;4.30;;
12770;SDS011;6449;47.666;9.160;2023-05-07T12:59:32;4.75;;;3.70;;
12770;SDS011;6449;47.666;9.160;2023-05-07T13:04:26;5.30;;;3.53;;
12770;SDS011;6449;47.666;9.160;2023-05-07T13:14:29;4.32;;;3.25;;
12770;SDS011;6449;47.666;9.160;2023-05-07T13:19:22;2.97;;;2.78;;
12770;SDS011;6449;47.666;9.160;2023-05-07T13:24:15;4.00;;;3.00;;
12770;SDS011;6449;47.666;9.160;2023-05-07T13:29:09;4.28;;;2.75;;
12770;SDS011;6449;47.666;9.160;2023-05-07T13:34:03;4.20;;;2.90;;
12770;SDS011;6449;47.666;9.160;2023-05-07T13:38:57;2.90;;;2.70;;
12770;SDS011;6449;47.666;9.160;2023-05-07T13:43:51;2.78;;;2.40;;
12770;SDS011;6449;47.666;9.160;2023-05-07T13:48:45;2.78;;;2.45;;
12770;SDS011;6449;47.666;9.160;2023-05-07T13:53:39;3.30;;;2.40;;
12770;SDS011;6449;47.666;9.160;2023-05-07T13:58:33;2.70;;;2.50;;
12770;SDS011;6449;47.666;9.160;2023-05-07T14:03:35;3.63;;;3.00;;
12770;SDS011;6449;47.666;9.160;2023-05-07T14:08:31;3.92;;;2.58;;
12770;SDS011;6449;47.666;9.160;2023-05-07T14:13:25;3.03;;;2.65;;
12770;SDS011;6449;47.666;9.160;2023-05-07T14:18:19;3.38;;;2.88;;
12770;SDS011;6449;47.666;9.160;2023-05-07T14:23:12;2.53;;;2.30;;
12770;SDS011;6449;47.666;9.160;2023-05-07T14:28:06;3.38;;;1.67;;
12770;SDS011;6449;47.666;9.160;2023-05-07T14:33:03;3.10;;;1.90;;
12770;SDS011;6449;47.666;9.160;2023-05-07T14:37:56;1.70;;;1.60;;
12770;SDS011;6449;47.666;9.160;2023-05-07T14:42:50;2.03;;;1.52;;
12770;SDS011;6449;47.666;9.160;2023-05-07T14:47:43;2.25;;;1.80;;
12770;SDS011;6449;47.666;9.160;2023-05-07T14:52:38;2.65;;;1.60;;
12770;SDS011;6449;47.666;9.160;2023-05-07T14:57:31;1.92;;;1.75;;
12770;SDS011;6449;47.666;9.160;2023-05-07T15:07:40;1.40;;;1.30;;
12770;SDS011;6449;47.666;9.160;2023-05-07T15:22:44;2.67;;;1.58;;
12770;SDS011;6449;47.666;9.160;2023-05-07T15:27:38;3.47;;;1.60;;
12770;SDS011;6449;47.666;9.160;2023-05-07T15:32:31;1.85;;;1.75;;
12770;SDS011;6449;47.666;9.160;2023-05-07T15:37:26;2.50;;;1.90;;
12770;SDS011;6449;47.666;9.160;2023-05-07T15:58:02;2.28;;;1.70;;
12770;SDS011;6449;47.666;9.160;2023-05-07T16:02:56;2.35;;;1.88;;
12770;SDS011;6449;47.666;9.160;2023-05-07T16:07:50;1.65;;;1.50;;
12770;SDS011;6449;47.666;9.160;2023-05-07T16:12:47;1.58;;;1.45;;
12770;SDS011;6449;47.666;9.160;2023-05-07T16:17:45;1.83;;;1.30;;
12770;SDS011;6449;47.666;9.160;2023-05-07T16:22:41;1.77;;;1.50;;
12770;SDS011;6449;47.666;9.160;2023-05-07T16:27:34;1.63;;;1.52;;
12770;SDS011;6449;47.666;9.160;2023-05-07T16:32:36;2.53;;;1.60;;
12770;SDS011;6449;47.666;9.160;2023-05-07T16:37:35;1.50;;;1.40;;
12770;SDS011;6449;47.666;9.160;2023-05-07T16:42:40;5.20;;;1.83;;
12770;SDS011;6449;47.666;9.160;2023-05-07T16:47:54;1.50;;;1.40;;
12770;SDS011;6449;47.666;9.160;2023-05-07T16:52:50;2.83;;;1.63;;
12770;SDS011;6449;47.666;9.160;2023-05-07T16:57:43;1.70;;;1.60;;
12770;SDS011;6449;47.666;9.160;2023-05-07T17:02:37;2.47;;;1.67;;
12770;SDS011;6449;47.666;9.160;2023-05-07T17:07:30;2.35;;;1.98;;
12770;SDS011;6449;47.666;9.160;2023-05-07T17:12:25;5.63;;;2.20;;
12770;SDS011;6449;47.666;9.160;2023-05-07T17:17:19;3.83;;;2.03;;
12770;SDS011;6449;47.666;9.160;2023-05-07T17:32:18;3.97;;;3.00;;
12770;SDS011;6449;47.666;9.160;2023-05-07T17:37:11;5.20;;;2.90;;
12770;SDS011;6449;47.666;9.160;2023-05-07T17:42:05;4.57;;;3.10;;
12770;SDS011;6449;47.666;9.160;2023-05-07T17:47:00;4.32;;;2.97;;
12770;SDS011;6449;47.666;9.160;2023-05-07T17:51:55;3.10;;;2.80;;
12770;SDS011;6449;47.666;9.160;2023-05-07T17:56:48;3.28;;;2.97;;
12770;SDS011;6449;47.666;9.160;2023-05-07T18:01:44;4.28;;;3.47;;
12770;SDS011;6449;47.666;9.160;2023-05-07T18:06:38;4.38;;;3.22;;
12770;SDS011;6449;47.666;9.160;2023-05-07T18:11:33;3.30;;;3.00;;
12770;SDS011;6449;47.666;9.160;2023-05-07T18:16:29;4.65;;;3.60;;
12770;SDS011;6449;47.666;9.160;2023-05-07T18:21:23;4.55;;;3.40;;
12770;SDS011;6449;47.666;9.160;2023-05-07T18:26:21;9.02;;;3.30;;
12770;SDS011;6449;47.666;9.160;2023-05-07T18:31:26;7.57;;;3.20;;
12770;SDS011;6449;47.666;9.160;2023-05-07T18:36:20;6.22;;;3.75;;
12770;SDS011;6449;47.666;9.160;2023-05-07T18:41:15;4.07;;;3.60;;
12770;SDS011;6449;47.666;9.160;2023-05-07T18:46:10;4.03;;;2.95;;
12770;SDS011;6449;47.666;9.160;2023-05-07T18:51:05;3.65;;;3.00;;
12770;SDS011;6449;47.666;9.160;2023-05-07T18:56:02;5.80;;;2.88;;
12770;SDS011;6449;47.666;9.160;2023-05-07T19:00:56;5.03;;;3.05;;
12770;SDS011;6449;47.666;9.160;2023-05-07T19:05:50;3.58;;;2.88;;
12770;SDS011;6449;47.666;9.160;2023-05-07T19:10:50;5.82;;;3.00;;
12770;SDS011;6449;47.666;9.160;2023-05-07T19:15:49;3.35;;;3.00;;
12770;SDS011;6449;47.666;9.160;2023-05-07T19:20:47;3.42;;;3.10;;
12770;SDS011;6449;47.666;9.160;2023-05-07T19:25:46;6.25;;;2.95;;
12770;SDS011;6449;47.666;9.160;2023-05-07T19:30:43;3.00;;;2.50;;
12770;SDS011;6449;47.666;9.160;2023-05-07T19:35:40;3.10;;;2.80;;
12770;SDS011;6449;47.666;9.160;2023-05-07T19:40:33;24.77;;;3.17;;
12770;SDS011;6449;47.666;9.160;2023-05-07T19:45:29;3.35;;;3.05;;
12770;SDS011;6449;47.666;9.160;2023-05-07T19:50:24;3.63;;;3.03;;
12770;SDS011;6449;47.666;9.160;2023-05-07T19:55:20;3.65;;;3.30;;
12770;SDS011;6449;47.666;9.160;2023-05-07T20:00:15;5.00;;;3.67;;
12770;SDS011;6449;47.666;9.160;2023-05-07T20:05:08;2.85;;;2.65;;
12770;SDS011;6449;47.666;9.160;2023-05-07T20:10:06;2.95;;;2.67;;
12770;SDS011;6449;47.666;9.160;2023-05-07T20:15:01;3.15;;;2.85;;
12770;SDS011;6449;47.666;9.160;2023-05-07T20:19:56;2.92;;;2.25;;
12770;SDS011;6449;47.666;9.160;2023-05-07T20:24:50;2.60;;;2.40;;
12770;SDS011;6449;47.666;9.160;2023-05-07T20:29:45;3.25;;;2.58;;
12770;SDS011;6449;47.666;9.160;2023-05-07T20:34:38;2.28;;;2.05;;
12770;SDS011;6449;47.666;9.160;2023-05-07T20:39:32;2.22;;;2.10;;
12770;SDS011;6449;47.666;9.160;2023-05-07T20:44:25;2.10;;;1.90;;
12770;SDS011;6449;47.666;9.160;2023-05-07T20:49:25;2.97;;;2.08;;
12770;SDS011;6449;47.666;9.160;2023-05-07T20:54:18;2.00;;;1.70;;
12770;SDS011;6449;47.666;9.160;2023-05-07T20:59:16;1.65;;;1.40;;
12770;SDS011;6449;47.666;9.160;2023-05-07T21:04:09;1.63;;;1.50;;
12770;SDS011;6449;47.666;9.160;2023-05-07T21:09:04;1.92;;;1.40;;
12770;SDS011;6449;47.666;9.160;2023-05-07T21:13:58;3.03;;;1.50;;
12770;SDS011;6449;47.666;9.160;2023-05-07T21:18:51;1.40;;;1.30;;
12770;SDS011;6449;47.666;9.160;2023-05-07T21:23:44;1.60;;;1.50;;
12770;SDS011;6449;47.666;9.160;2023-05-07T21:28:39;1.40;;;1.30;;
12770;SDS011;6449;47.666;9.160;2023-05-07T21:33:32;3.10;;;1.33;;
12770;SDS011;6449;47.666;9.160;2023-05-07T21:38:26;2.03;;;1.30;;
12770;SDS011;6449;47.666;9.160;2023-05-07T21:43:19;1.90;;;1.20;;
12770;SDS011;6449;47.666;9.160;2023-05-07T21:48:14;1.77;;;1.10;;
12770;SDS011;6449;47.666;9.160;2023-05-07T21:53:11;1.27;;;1.17;;
12770;SDS011;6449;47.666;9.160;2023-05-07T21:58:04;2.00;;;1.48;;
12770;SDS011;6449;47.666;9.160;2023-05-07T22:02:58;1.60;;;1.27;;
12770;SDS011;6449;47.666;9.160;2023-05-07T22:07:53;1.30;;;1.20;;
12770;SDS011;6449;47.666;9.160;2023-05-07T22:12:46;1.55;;;1.20;;
12770;SDS011;6449;47.666;9.160;2023-05-07T22:17:42;2.00;;;1.05;;
12770;SDS011;6449;47.666;9.160;2023-05-07T22:22:44;1.23;;;1.17;;
12770;SDS011;6449;47.666;9.160;2023-05-07T22:27:43;0.90;;;0.90;;
12770;SDS011;6449;47.666;9.160;2023-05-07T22:32:36;4.07;;;1.23;;
12770;SDS011;6449;47.666;9.160;2023-05-07T22:37:30;1.67;;;1.05;;
12770;SDS011;6449;47.666;9.160;2023-05-07T22:42:23;1.00;;;1.00;;
12770;SDS011;6449;47.666;9.160;2023-05-07T22:47:18;0.93;;;0.82;;
12770;SDS011;6449;47.666;9.160;2023-05-07T22:52:11;1.10;;;1.00;;
12770;SDS011;6449;47.666;9.160;2023-05-07T22:57:05;0.98;;;0.90;;
12770;SDS011;6449;47.666;9.160;2023-05-07T23:01:58;2.95;;;1.08;;
12770;SDS011;6449;47.666;9.160;2023-05-07T23:06:53;1.00;;;1.00;;
12770;SDS011;6449;47.666;9.160;2023-05-07T23:11:46;0.88;;;0.80;;
12770;SDS011;6449;47.666;9.160;2023-05-07T23:16:39;0.80;;;0.80;;
12770;SDS011;6449;47.666;9.160;2023-05-07T23:21:33;0.77;;;0.65;;
12770;SDS011;6449;47.666;9.160;2023-05-07T23:26:27;0.75;;;0.75;;
12770;SDS011;6449;47.666;9.160;2023-05-07T23:31:21;2.17;;;1.20;;
12770;SDS011;6449;47.666;9.160;2023-05-07T23:36:14;2.88;;;1.92;;
12770;SDS011;6449;47.666;9.160;2023-05-07T23:41:07;0.80;;;0.80;;
12770;SDS011;6449;47.666;9.160;2023-05-07T23:46:02;0.52;;;0.52;;
12770;SDS011;6449;47.666;9.160;2023-05-07T23:50:55;2.13;;;0.80;;
12770;SDS011;6449;47.666;9.160;2023-05-07T23:55:49;0.63;;;0.63;;
